Bowen, Queensland

6:12 PM AEST on July 27, 2016 (GMT +1000)
Delta | | Change Station

Elev 43 ft 20.02 °S, 148.19 °E | Updated 7 seconds ago

Clear
Clear
74.3 °F
Feels Like 75 °F
N
6.0
Wind Variable Wind from ENE
Gusts 10.0 mph

Today
High -- | Low -- °F
--% Chance of Precip.
Yesterday
High -- | Low -- °F
Precip. -- in
Pressure 30.06 in
Visibility 6.2 miles
Clouds
Heat Index 75 °F
Dew Point 67 °F
Humidity 79%
Rainfall 0.00 in
Snow Depth Not available.
6:39 AM 5:48 PM
Last Quarter, 46% visible
METAR YBHM 270800Z AUTO 12014KT 9999 // NCD 21/18 Q1018
Pressure 30.06 in
Visibility 6.2 miles
Clouds
Heat Index 75 °F
Dew Point 67 °F
Humidity 79%
Rainfall 0.00 in
Snow Depth Not available.
6:39 AM 5:48 PM
Last Quarter, 46% visible
METAR YBHM 270800Z AUTO 12014KT 9999 // NCD 21/18 Q1018

10-Day Weather Forecast

Almanac

Astronomy

Jul. 27, 2016 Rise Set
Actual Time
Civil Twilight
Nautical Twilight
Astronomical Twilight
Moon
Length of Visible Light
Length of Day
Tomorrow will be .
, % of the Moon is Illuminated

Today's Extremes

Country Highs Country Lows

Community

WunderPhotos

Upload Photos

1,927,818 photos uploaded!

WunderBlog® & News

Nearby

Air Quality

  Air Quality AQ Index Pollutant
Not available.

Snow Depth

Station Depth Elevation

Earthquake Activity

City Distance Mag. Time & Date
Minimum magnitude displayed is 2.5.

Coastal Water Temperatures

Place Temperature

Stations

Nearby Weather Stations

Station Location Temp. Windchill Dew Point Humidity Wind Precip. Elev Updated Type